sensor_id;sensor_type;location;lat;lon;timestamp;temperature;humidity
18173;DHT22;9211;48.818;9.312;2023-05-03T00:01:23;12.00;99.90
18173;DHT22;9211;48.818;9.312;2023-05-03T00:03:51;12.10;99.90
18173;DHT22;9211;48.818;9.312;2023-05-03T00:06:18;12.10;99.90
18173;DHT22;9211;48.818;9.312;2023-05-03T00:08:48;12.10;99.90
18173;DHT22;9211;48.818;9.312;2023-05-03T00:11:15;12.00;99.90
18173;DHT22;9211;48.818;9.312;2023-05-03T00:13:42;12.10;99.90
18173;DHT22;9211;48.818;9.312;2023-05-03T00:16:09;12.10;99.90
18173;DHT22;9211;48.818;9.312;2023-05-03T00:18:36;12.10;99.90
18173;DHT22;9211;48.818;9.312;2023-05-03T00:21:02;12.10;99.90
18173;DHT22;9211;48.818;9.312;2023-05-03T00:23:30;12.10;99.90
18173;DHT22;9211;48.818;9.312;2023-05-03T00:25:58;12.00;99.90
18173;DHT22;9211;48.818;9.312;2023-05-03T00:28:25;12.00;99.90
18173;DHT22;9211;48.818;9.312;2023-05-03T00:30:52;12.00;99.90
18173;DHT22;9211;48.818;9.312;2023-05-03T00:33:19;12.00;99.90
18173;DHT22;9211;48.818;9.312;2023-05-03T00:35:46;12.00;99.90
18173;DHT22;9211;48.818;9.312;2023-05-03T00:38:13;11.90;99.90
18173;DHT22;9211;48.818;9.312;2023-05-03T00:40:40;11.90;99.90
18173;DHT22;9211;48.818;9.312;2023-05-03T00:43:11;11.90;99.90
18173;DHT22;9211;48.818;9.312;2023-05-03T00:45:39;11.90;99.90
18173;DHT22;9211;48.818;9.312;2023-05-03T00:48:06;11.80;99.90
18173;DHT22;9211;48.818;9.312;2023-05-03T00:50:33;11.90;99.90
18173;DHT22;9211;48.818;9.312;2023-05-03T00:53:01;11.80;99.90
18173;DHT22;9211;48.818;9.312;2023-05-03T00:55:28;11.80;99.90
18173;DHT22;9211;48.818;9.312;2023-05-03T00:57:57;11.70;99.90
18173;DHT22;9211;48.818;9.312;2023-05-03T01:00:25;11.70;99.90
18173;DHT22;9211;48.818;9.312;2023-05-03T01:02:52;11.70;99.90
18173;DHT22;9211;48.818;9.312;2023-05-03T01:05:20;11.80;99.90
18173;DHT22;9211;48.818;9.312;2023-05-03T01:07:55;11.80;99.90
18173;DHT22;9211;48.818;9.312;2023-05-03T01:10:32;11.70;99.90
18173;DHT22;9211;48.818;9.312;2023-05-03T01:13:09;11.70;99.90
18173;DHT22;9211;48.818;9.312;2023-05-03T01:15:44;11.60;99.90
18173;DHT22;9211;48.818;9.312;2023-05-03T01:18:15;11.60;99.90
18173;DHT22;9211;48.818;9.312;2023-05-03T01:20:47;11.60;99.90
18173;DHT22;9211;48.818;9.312;2023-05-03T01:23:26;11.60;99.90
18173;DHT22;9211;48.818;9.312;2023-05-03T01:25:56;11.60;99.90
18173;DHT22;9211;48.818;9.312;2023-05-03T01:28:24;11.60;99.90
18173;DHT22;9211;48.818;9.312;2023-05-03T01:30:51;11.60;99.90
18173;DHT22;9211;48.818;9.312;2023-05-03T01:33:29;11.70;99.90
18173;DHT22;9211;48.818;9.312;2023-05-03T01:36:01;11.70;99.90
18173;DHT22;9211;48.818;9.312;2023-05-03T01:38:32;11.60;99.90
18173;DHT22;9211;48.818;9.312;2023-05-03T01:41:08;11.60;99.90
18173;DHT22;9211;48.818;9.312;2023-05-03T01:43:36;11.60;99.90
18173;DHT22;9211;48.818;9.312;2023-05-03T01:46:03;11.50;99.90
18173;DHT22;9211;48.818;9.312;2023-05-03T01:48:31;11.50;99.90
18173;DHT22;9211;48.818;9.312;2023-05-03T01:50:58;11.50;99.90
18173;DHT22;9211;48.818;9.312;2023-05-03T01:53:25;11.50;99.90
18173;DHT22;9211;48.818;9.312;2023-05-03T01:55:52;11.40;99.90
18173;DHT22;9211;48.818;9.312;2023-05-03T01:58:20;11.40;99.90
18173;DHT22;9211;48.818;9.312;2023-05-03T02:03:23;11.40;99.90
18173;DHT22;9211;48.818;9.312;2023-05-03T02:05:49;11.30;99.90
18173;DHT22;9211;48.818;9.312;2023-05-03T02:08:16;11.30;99.90
18173;DHT22;9211;48.818;9.312;2023-05-03T02:10:43;11.20;99.90
18173;DHT22;9211;48.818;9.312;2023-05-03T02:13:10;11.20;99.90
18173;DHT22;9211;48.818;9.312;2023-05-03T02:15:39;11.20;99.90
18173;DHT22;9211;48.818;9.312;2023-05-03T02:18:06;11.20;99.90
18173;DHT22;9211;48.818;9.312;2023-05-03T02:20:33;11.20;99.90
18173;DHT22;9211;48.818;9.312;2023-05-03T02:23:02;11.20;99.90
18173;DHT22;9211;48.818;9.312;2023-05-03T02:25:29;11.20;99.90
18173;DHT22;9211;48.818;9.312;2023-05-03T02:27:57;11.20;99.90
18173;DHT22;9211;48.818;9.312;2023-05-03T02:30:24;11.10;99.90
18173;DHT22;9211;48.818;9.312;2023-05-03T02:32:52;11.10;99.90
18173;DHT22;9211;48.818;9.312;2023-05-03T02:35:20;11.10;99.90
18173;DHT22;9211;48.818;9.312;2023-05-03T02:37:47;11.00;99.90
18173;DHT22;9211;48.818;9.312;2023-05-03T02:40:15;11.00;99.90
18173;DHT22;9211;48.818;9.312;2023-05-03T02:42:44;11.00;99.90
18173;DHT22;9211;48.818;9.312;2023-05-03T02:45:14;10.90;99.90
18173;DHT22;9211;48.818;9.312;2023-05-03T02:47:41;10.90;99.90
18173;DHT22;9211;48.818;9.312;2023-05-03T02:50:09;10.90;99.90
18173;DHT22;9211;48.818;9.312;2023-05-03T02:52:38;10.80;99.90
18173;DHT22;9211;48.818;9.312;2023-05-03T02:55:06;10.80;99.90
18173;DHT22;9211;48.818;9.312;2023-05-03T02:57:34;10.70;99.90
18173;DHT22;9211;48.818;9.312;2023-05-03T03:00:03;10.70;99.90
18173;DHT22;9211;48.818;9.312;2023-05-03T03:02:30;10.60;99.90
18173;DHT22;9211;48.818;9.312;2023-05-03T03:04:58;10.50;99.90
18173;DHT22;9211;48.818;9.312;2023-05-03T03:07:26;10.40;99.90
18173;DHT22;9211;48.818;9.312;2023-05-03T03:09:56;10.40;99.90
18173;DHT22;9211;48.818;9.312;2023-05-03T03:12:24;10.40;99.90
18173;DHT22;9211;48.818;9.312;2023-05-03T03:14:53;10.40;99.90
18173;DHT22;9211;48.818;9.312;2023-05-03T03:17:20;10.30;99.90
18173;DHT22;9211;48.818;9.312;2023-05-03T03:19:47;10.30;99.90
18173;DHT22;9211;48.818;9.312;2023-05-03T03:22:14;10.20;99.90
18173;DHT22;9211;48.818;9.312;2023-05-03T03:24:42;10.00;99.90
18173;DHT22;9211;48.818;9.312;2023-05-03T03:27:09;9.90;99.90
18173;DHT22;9211;48.818;9.312;2023-05-03T03:29:36;9.90;99.90
18173;DHT22;9211;48.818;9.312;2023-05-03T03:32:05;9.80;99.90
18173;DHT22;9211;48.818;9.312;2023-05-03T03:34:32;9.80;99.90
18173;DHT22;9211;48.818;9.312;2023-05-03T03:37:00;9.80;99.90
18173;DHT22;9211;48.818;9.312;2023-05-03T03:39:29;9.80;99.90
18173;DHT22;9211;48.818;9.312;2023-05-03T03:41:57;9.80;99.90
18173;DHT22;9211;48.818;9.312;2023-05-03T03:44:25;9.70;99.90
18173;DHT22;9211;48.818;9.312;2023-05-03T03:46:53;9.70;99.90
18173;DHT22;9211;48.818;9.312;2023-05-03T03:49:20;9.60;99.90
18173;DHT22;9211;48.818;9.312;2023-05-03T03:51:47;9.60;99.90
18173;DHT22;9211;48.818;9.312;2023-05-03T03:54:14;9.60;99.90
18173;DHT22;9211;48.818;9.312;2023-05-03T03:56:46;9.50;99.90
18173;DHT22;9211;48.818;9.312;2023-05-03T03:59:15;9.50;99.90
18173;DHT22;9211;48.818;9.312;2023-05-03T04:01:43;9.50;99.90
18173;DHT22;9211;48.818;9.312;2023-05-03T04:04:10;9.40;99.90
18173;DHT22;9211;48.818;9.312;2023-05-03T04:06:38;9.40;99.90
18173;DHT22;9211;48.818;9.312;2023-05-03T04:09:09;9.30;99.90
18173;DHT22;9211;48.818;9.312;2023-05-03T04:11:37;9.30;99.90
18173;DHT22;9211;48.818;9.312;2023-05-03T04:14:04;9.30;99.90
18173;DHT22;9211;48.818;9.312;2023-05-03T04:16:33;9.30;99.90
18173;DHT22;9211;48.818;9.312;2023-05-03T04:19:02;9.30;99.90
18173;DHT22;9211;48.818;9.312;2023-05-03T04:21:31;9.40;99.90
18173;DHT22;9211;48.818;9.312;2023-05-03T04:23:58;9.40;99.90
18173;DHT22;9211;48.818;9.312;2023-05-03T04:26:26;9.50;99.90
18173;DHT22;9211;48.818;9.312;2023-05-03T04:28:54;9.50;99.90
18173;DHT22;9211;48.818;9.312;2023-05-03T04:31:22;9.50;99.90
18173;DHT22;9211;48.818;9.312;2023-05-03T04:33:54;9.60;99.90
18173;DHT22;9211;48.818;9.312;2023-05-03T04:36:21;9.50;99.90
18173;DHT22;9211;48.818;9.312;2023-05-03T04:38:50;9.60;99.90
18173;DHT22;9211;48.818;9.312;2023-05-03T04:41:18;9.60;99.90
18173;DHT22;9211;48.818;9.312;2023-05-03T04:43:46;9.60;99.90
18173;DHT22;9211;48.818;9.312;2023-05-03T04:46:14;9.50;99.90
18173;DHT22;9211;48.818;9.312;2023-05-03T04:48:44;9.60;99.90
18173;DHT22;9211;48.818;9.312;2023-05-03T04:51:12;9.50;99.90
18173;DHT22;9211;48.818;9.312;2023-05-03T04:53:41;9.50;99.90
18173;DHT22;9211;48.818;9.312;2023-05-03T04:56:13;9.60;99.90
18173;DHT22;9211;48.818;9.312;2023-05-03T04:58:40;9.60;99.90
18173;DHT22;9211;48.818;9.312;2023-05-03T05:01:07;9.70;99.90
18173;DHT22;9211;48.818;9.312;2023-05-03T05:03:34;9.70;99.90
18173;DHT22;9211;48.818;9.312;2023-05-03T05:06:07;9.70;99.90
18173;DHT22;9211;48.818;9.312;2023-05-03T05:08:40;9.70;99.90
18173;DHT22;9211;48.818;9.312;2023-05-03T05:11:11;9.70;99.90
18173;DHT22;9211;48.818;9.312;2023-05-03T05:13:39;9.70;99.90
18173;DHT22;9211;48.818;9.312;2023-05-03T05:16:06;9.80;99.90
18173;DHT22;9211;48.818;9.312;2023-05-03T05:18:34;9.70;99.90
18173;DHT22;9211;48.818;9.312;2023-05-03T05:21:04;9.70;99.90
18173;DHT22;9211;48.818;9.312;2023-05-03T05:23:32;9.70;99.90
18173;DHT22;9211;48.818;9.312;2023-05-03T05:26:02;9.70;99.90
18173;DHT22;9211;48.818;9.312;2023-05-03T05:28:31;9.70;99.90
18173;DHT22;9211;48.818;9.312;2023-05-03T05:30:58;9.80;99.90
18173;DHT22;9211;48.818;9.312;2023-05-03T05:33:26;9.90;99.90
18173;DHT22;9211;48.818;9.312;2023-05-03T05:35:53;9.90;99.90
18173;DHT22;9211;48.818;9.312;2023-05-03T05:38:21;9.90;99.90
18173;DHT22;9211;48.818;9.312;2023-05-03T05:40:50;9.90;99.90
18173;DHT22;9211;48.818;9.312;2023-05-03T05:43:19;10.00;99.90
18173;DHT22;9211;48.818;9.312;2023-05-03T05:45:47;10.00;99.90
18173;DHT22;9211;48.818;9.312;2023-05-03T05:48:15;10.00;99.90
18173;DHT22;9211;48.818;9.312;2023-05-03T05:50:43;10.10;99.90
18173;DHT22;9211;48.818;9.312;2023-05-03T05:53:12;10.10;99.90
18173;DHT22;9211;48.818;9.312;2023-05-03T05:55:44;10.10;99.90
18173;DHT22;9211;48.818;9.312;2023-05-03T05:58:12;10.20;99.90
18173;DHT22;9211;48.818;9.312;2023-05-03T06:00:48;10.20;99.90
18173;DHT22;9211;48.818;9.312;2023-05-03T06:03:17;10.30;99.90
18173;DHT22;9211;48.818;9.312;2023-05-03T06:05:47;10.30;99.90
18173;DHT22;9211;48.818;9.312;2023-05-03T06:08:14;10.30;99.90
18173;DHT22;9211;48.818;9.312;2023-05-03T06:10:41;10.30;99.90
18173;DHT22;9211;48.818;9.312;2023-05-03T06:13:08;10.40;99.90
18173;DHT22;9211;48.818;9.312;2023-05-03T06:15:35;10.50;99.90
18173;DHT22;9211;48.818;9.312;2023-05-03T06:18:04;10.50;99.90
18173;DHT22;9211;48.818;9.312;2023-05-03T06:20:31;10.60;99.90
18173;DHT22;9211;48.818;9.312;2023-05-03T06:22:59;10.50;99.90
18173;DHT22;9211;48.818;9.312;2023-05-03T06:25:26;10.60;99.90
18173;DHT22;9211;48.818;9.312;2023-05-03T06:27:53;10.60;99.90
18173;DHT22;9211;48.818;9.312;2023-05-03T06:30:24;10.70;99.90
18173;DHT22;9211;48.818;9.312;2023-05-03T06:32:54;10.70;99.90
18173;DHT22;9211;48.818;9.312;2023-05-03T06:35:22;10.80;99.90
18173;DHT22;9211;48.818;9.312;2023-05-03T06:37:49;10.80;99.90
18173;DHT22;9211;48.818;9.312;2023-05-03T06:40:16;10.90;99.90
18173;DHT22;9211;48.818;9.312;2023-05-03T06:42:43;10.90;99.90
18173;DHT22;9211;48.818;9.312;2023-05-03T06:45:14;11.00;99.90
18173;DHT22;9211;48.818;9.312;2023-05-03T06:47:42;11.10;99.90
18173;DHT22;9211;48.818;9.312;2023-05-03T06:50:10;11.10;99.90
18173;DHT22;9211;48.818;9.312;2023-05-03T06:52:38;11.20;99.90
18173;DHT22;9211;48.818;9.312;2023-05-03T06:55:06;11.30;99.90
18173;DHT22;9211;48.818;9.312;2023-05-03T06:57:33;11.30;99.90
18173;DHT22;9211;48.818;9.312;2023-05-03T07:00:00;11.30;99.90
18173;DHT22;9211;48.818;9.312;2023-05-03T07:02:31;11.40;99.90
18173;DHT22;9211;48.818;9.312;2023-05-03T07:04:58;11.50;99.90
18173;DHT22;9211;48.818;9.312;2023-05-03T07:07:25;11.50;99.90
18173;DHT22;9211;48.818;9.312;2023-05-03T07:09:54;11.50;99.90
18173;DHT22;9211;48.818;9.312;2023-05-03T07:12:21;11.40;99.90
18173;DHT22;9211;48.818;9.312;2023-05-03T07:14:52;11.40;99.90
18173;DHT22;9211;48.818;9.312;2023-05-03T07:17:19;11.50;99.90
18173;DHT22;9211;48.818;9.312;2023-05-03T07:19:48;11.50;99.90
18173;DHT22;9211;48.818;9.312;2023-05-03T07:22:15;11.60;99.90
18173;DHT22;9211;48.818;9.312;2023-05-03T07:24:43;11.60;99.90
18173;DHT22;9211;48.818;9.312;2023-05-03T07:27:12;11.70;99.90
18173;DHT22;9211;48.818;9.312;2023-05-03T07:29:40;11.70;99.90
18173;DHT22;9211;48.818;9.312;2023-05-03T07:32:07;11.70;99.90
18173;DHT22;9211;48.818;9.312;2023-05-03T07:34:34;11.80;99.90
18173;DHT22;9211;48.818;9.312;2023-05-03T07:37:01;11.90;99.90
18173;DHT22;9211;48.818;9.312;2023-05-03T07:39:28;11.90;99.90
18173;DHT22;9211;48.818;9.312;2023-05-03T07:41:55;12.00;99.90
18173;DHT22;9211;48.818;9.312;2023-05-03T07:44:24;11.90;99.90
18173;DHT22;9211;48.818;9.312;2023-05-03T07:46:51;12.00;99.90
18173;DHT22;9211;48.818;9.312;2023-05-03T07:49:18;12.10;99.90
18173;DHT22;9211;48.818;9.312;2023-05-03T07:51:45;12.20;99.90
18173;DHT22;9211;48.818;9.312;2023-05-03T07:54:12;12.30;99.90
18173;DHT22;9211;48.818;9.312;2023-05-03T07:56:39;12.40;99.90
18173;DHT22;9211;48.818;9.312;2023-05-03T07:59:06;12.50;99.90
18173;DHT22;9211;48.818;9.312;2023-05-03T08:01:34;12.50;99.90
18173;DHT22;9211;48.818;9.312;2023-05-03T08:04:01;12.60;99.90
18173;DHT22;9211;48.818;9.312;2023-05-03T08:06:28;12.70;99.90
18173;DHT22;9211;48.818;9.312;2023-05-03T08:08:56;12.70;99.90
18173;DHT22;9211;48.818;9.312;2023-05-03T08:11:23;12.80;99.90
18173;DHT22;9211;48.818;9.312;2023-05-03T08:13:50;12.80;99.90
18173;DHT22;9211;48.818;9.312;2023-05-03T08:16:16;12.90;99.90
18173;DHT22;9211;48.818;9.312;2023-05-03T08:18:45;13.00;99.90
18173;DHT22;9211;48.818;9.312;2023-05-03T08:21:13;13.10;99.90
18173;DHT22;9211;48.818;9.312;2023-05-03T08:23:42;13.20;99.90
18173;DHT22;9211;48.818;9.312;2023-05-03T08:26:09;13.30;99.90
18173;DHT22;9211;48.818;9.312;2023-05-03T08:28:38;13.40;99.90
18173;DHT22;9211;48.818;9.312;2023-05-03T08:31:05;13.40;99.90
18173;DHT22;9211;48.818;9.312;2023-05-03T08:33:32;13.50;99.90
18173;DHT22;9211;48.818;9.312;2023-05-03T08:36:00;13.50;99.90
18173;DHT22;9211;48.818;9.312;2023-05-03T08:38:27;13.60;99.90
18173;DHT22;9211;48.818;9.312;2023-05-03T08:40:57;13.70;99.90
18173;DHT22;9211;48.818;9.312;2023-05-03T08:43:26;13.80;99.90
18173;DHT22;9211;48.818;9.312;2023-05-03T08:45:54;13.90;99.90
18173;DHT22;9211;48.818;9.312;2023-05-03T08:48:21;14.00;99.90
18173;DHT22;9211;48.818;9.312;2023-05-03T08:50:50;14.10;99.90
18173;DHT22;9211;48.818;9.312;2023-05-03T08:53:19;14.20;99.90
18173;DHT22;9211;48.818;9.312;2023-05-03T08:55:47;14.30;99.90
18173;DHT22;9211;48.818;9.312;2023-05-03T08:58:14;14.50;99.90
18173;DHT22;9211;48.818;9.312;2023-05-03T09:00:41;14.60;99.90
18173;DHT22;9211;48.818;9.312;2023-05-03T09:03:09;14.70;99.90
18173;DHT22;9211;48.818;9.312;2023-05-03T09:05:36;14.90;99.90
18173;DHT22;9211;48.818;9.312;2023-05-03T09:08:07;15.10;99.90
18173;DHT22;9211;48.818;9.312;2023-05-03T09:10:38;15.20;99.90
18173;DHT22;9211;48.818;9.312;2023-05-03T09:13:06;15.30;99.90
18173;DHT22;9211;48.818;9.312;2023-05-03T09:15:34;15.40;99.90
18173;DHT22;9211;48.818;9.312;2023-05-03T09:18:15;15.50;99.90
18173;DHT22;9211;48.818;9.312;2023-05-03T09:20:42;15.60;99.90
18173;DHT22;9211;48.818;9.312;2023-05-03T09:23:27;15.80;99.90
18173;DHT22;9211;48.818;9.312;2023-05-03T09:25:57;16.00;99.90
18173;DHT22;9211;48.818;9.312;2023-05-03T09:28:25;16.20;99.90
18173;DHT22;9211;48.818;9.312;2023-05-03T09:31:03;16.20;99.90
18173;DHT22;9211;48.818;9.312;2023-05-03T09:33:31;16.20;99.90
18173;DHT22;9211;48.818;9.312;2023-05-03T09:35:59;16.30;99.90
18173;DHT22;9211;48.818;9.312;2023-05-03T09:38:28;16.40;99.90
18173;DHT22;9211;48.818;9.312;2023-05-03T09:40:57;16.50;99.90
18173;DHT22;9211;48.818;9.312;2023-05-03T09:43:24;16.50;99.90
18173;DHT22;9211;48.818;9.312;2023-05-03T09:45:51;16.50;99.90
18173;DHT22;9211;48.818;9.312;2023-05-03T09:48:19;16.70;99.90
18173;DHT22;9211;48.818;9.312;2023-05-03T09:50:48;16.80;99.90
18173;DHT22;9211;48.818;9.312;2023-05-03T09:53:15;16.80;99.90
18173;DHT22;9211;48.818;9.312;2023-05-03T09:55:46;16.90;99.90
18173;DHT22;9211;48.818;9.312;2023-05-03T09:58:17;17.00;99.90
18173;DHT22;9211;48.818;9.312;2023-05-03T10:00:47;17.10;99.90
18173;DHT22;9211;48.818;9.312;2023-05-03T10:03:21;17.20;99.90
18173;DHT22;9211;48.818;9.312;2023-05-03T10:05:50;17.30;99.90
18173;DHT22;9211;48.818;9.312;2023-05-03T10:08:24;17.40;99.90
18173;DHT22;9211;48.818;9.312;2023-05-03T10:10:53;17.50;99.90
18173;DHT22;9211;48.818;9.312;2023-05-03T10:13:22;17.40;99.90
18173;DHT22;9211;48.818;9.312;2023-05-03T10:15:54;17.30;99.90
18173;DHT22;9211;48.818;9.312;2023-05-03T10:18:23;17.40;99.90
18173;DHT22;9211;48.818;9.312;2023-05-03T10:20:54;17.40;99.90
18173;DHT22;9211;48.818;9.312;2023-05-03T10:23:22;17.60;99.90
18173;DHT22;9211;48.818;9.312;2023-05-03T10:26:12;17.60;99.90
18173;DHT22;9211;48.818;9.312;2023-05-03T10:28:43;17.70;99.90
18173;DHT22;9211;48.818;9.312;2023-05-03T10:31:42;17.70;99.90
18173;DHT22;9211;48.818;9.312;2023-05-03T10:34:20;17.90;99.90
18173;DHT22;9211;48.818;9.312;2023-05-03T10:36:47;18.20;99.90
18173;DHT22;9211;48.818;9.312;2023-05-03T10:39:17;18.30;99.90
18173;DHT22;9211;48.818;9.312;2023-05-03T10:41:46;18.50;99.90
18173;DHT22;9211;48.818;9.312;2023-05-03T10:44:32;18.40;99.90
18173;DHT22;9211;48.818;9.312;2023-05-03T10:47:09;18.40;99.90
18173;DHT22;9211;48.818;9.312;2023-05-03T10:49:37;18.30;99.90
18173;DHT22;9211;48.818;9.312;2023-05-03T10:52:48;18.30;99.90
18173;DHT22;9211;48.818;9.312;2023-05-03T10:55:16;18.20;99.90
18173;DHT22;9211;48.818;9.312;2023-05-03T10:57:45;18.30;99.90
18173;DHT22;9211;48.818;9.312;2023-05-03T11:00:15;18.40;99.90
18173;DHT22;9211;48.818;9.312;2023-05-03T11:03:01;18.60;99.90
18173;DHT22;9211;48.818;9.312;2023-05-03T11:05:30;18.80;99.90
18173;DHT22;9211;48.818;9.312;2023-05-03T11:08:09;18.90;99.90
18173;DHT22;9211;48.818;9.312;2023-05-03T11:10:36;18.90;99.90
18173;DHT22;9211;48.818;9.312;2023-05-03T11:13:03;18.80;99.90
18173;DHT22;9211;48.818;9.312;2023-05-03T11:15:30;18.70;99.90
18173;DHT22;9211;48.818;9.312;2023-05-03T11:17:58;18.70;99.90
18173;DHT22;9211;48.818;9.312;2023-05-03T11:20:25;18.70;99.90
18173;DHT22;9211;48.818;9.312;2023-05-03T11:22:52;18.70;99.90
18173;DHT22;9211;48.818;9.312;2023-05-03T11:25:20;18.70;99.90
18173;DHT22;9211;48.818;9.312;2023-05-03T11:27:48;18.70;99.90
18173;DHT22;9211;48.818;9.312;2023-05-03T11:30:15;18.70;99.90
18173;DHT22;9211;48.818;9.312;2023-05-03T11:32:43;18.70;99.90
18173;DHT22;9211;48.818;9.312;2023-05-03T11:35:11;18.70;99.90
18173;DHT22;9211;48.818;9.312;2023-05-03T11:37:41;18.90;99.90
18173;DHT22;9211;48.818;9.312;2023-05-03T11:40:14;19.00;99.90
18173;DHT22;9211;48.818;9.312;2023-05-03T11:42:53;19.00;99.90
18173;DHT22;9211;48.818;9.312;2023-05-03T11:45:22;18.80;99.90
18173;DHT22;9211;48.818;9.312;2023-05-03T11:47:49;18.80;99.90
18173;DHT22;9211;48.818;9.312;2023-05-03T11:50:17;18.70;99.90
18173;DHT22;9211;48.818;9.312;2023-05-03T11:52:44;18.80;99.90
18173;DHT22;9211;48.818;9.312;2023-05-03T11:55:11;19.10;99.90
18173;DHT22;9211;48.818;9.312;2023-05-03T11:57:38;19.30;99.90
18173;DHT22;9211;48.818;9.312;2023-05-03T12:00:12;19.50;99.90
18173;DHT22;9211;48.818;9.312;2023-05-03T12:02:42;19.70;99.90
18173;DHT22;9211;48.818;9.312;2023-05-03T12:05:09;19.80;99.90
18173;DHT22;9211;48.818;9.312;2023-05-03T12:07:36;19.90;99.90
18173;DHT22;9211;48.818;9.312;2023-05-03T12:10:16;20.20;99.90
18173;DHT22;9211;48.818;9.312;2023-05-03T12:12:57;20.30;99.90
18173;DHT22;9211;48.818;9.312;2023-05-03T12:15:31;20.40;99.90
18173;DHT22;9211;48.818;9.312;2023-05-03T12:18:00;20.30;99.90
18173;DHT22;9211;48.818;9.312;2023-05-03T12:20:28;20.30;99.90
18173;DHT22;9211;48.818;9.312;2023-05-03T12:22:58;20.20;99.90
18173;DHT22;9211;48.818;9.312;2023-05-03T12:25:26;20.20;99.90
18173;DHT22;9211;48.818;9.312;2023-05-03T12:27:54;20.20;99.90
18173;DHT22;9211;48.818;9.312;2023-05-03T12:30:22;20.20;99.90
18173;DHT22;9211;48.818;9.312;2023-05-03T12:32:50;20.20;99.90
18173;DHT22;9211;48.818;9.312;2023-05-03T12:35:18;20.40;99.90
18173;DHT22;9211;48.818;9.312;2023-05-03T12:37:45;20.50;99.90
18173;DHT22;9211;48.818;9.312;2023-05-03T12:40:13;20.60;99.90
18173;DHT22;9211;48.818;9.312;2023-05-03T12:42:41;20.80;99.90
18173;DHT22;9211;48.818;9.312;2023-05-03T12:45:08;21.00;99.90
18173;DHT22;9211;48.818;9.312;2023-05-03T12:47:36;21.10;99.90
18173;DHT22;9211;48.818;9.312;2023-05-03T12:50:05;21.10;99.90
18173;DHT22;9211;48.818;9.312;2023-05-03T12:52:33;21.10;99.90
18173;DHT22;9211;48.818;9.312;2023-05-03T12:55:01;21.00;99.90
18173;DHT22;9211;48.818;9.312;2023-05-03T12:57:29;20.90;99.90
18173;DHT22;9211;48.818;9.312;2023-05-03T12:59:56;20.60;99.90
18173;DHT22;9211;48.818;9.312;2023-05-03T13:02:23;20.50;99.90
18173;DHT22;9211;48.818;9.312;2023-05-03T13:04:51;20.40;99.90
18173;DHT22;9211;48.818;9.312;2023-05-03T13:07:21;20.30;99.90
18173;DHT22;9211;48.818;9.312;2023-05-03T13:09:49;20.30;99.80
18173;DHT22;9211;48.818;9.312;2023-05-03T13:12:17;20.30;99.50
18173;DHT22;9211;48.818;9.312;2023-05-03T13:14:45;20.20;99.40
18173;DHT22;9211;48.818;9.312;2023-05-03T13:17:12;20.10;99.30
18173;DHT22;9211;48.818;9.312;2023-05-03T13:19:40;20.20;99.70
18173;DHT22;9211;48.818;9.312;2023-05-03T13:22:07;20.50;99.90
18173;DHT22;9211;48.818;9.312;2023-05-03T13:24:36;20.70;99.90
18173;DHT22;9211;48.818;9.312;2023-05-03T13:27:03;20.90;98.20
18173;DHT22;9211;48.818;9.312;2023-05-03T13:29:30;20.90;97.40
18173;DHT22;9211;48.818;9.312;2023-05-03T13:31:57;21.10;97.80
18173;DHT22;9211;48.818;9.312;2023-05-03T13:34:24;21.20;96.80
18173;DHT22;9211;48.818;9.312;2023-05-03T13:36:51;21.20;96.20
18173;DHT22;9211;48.818;9.312;2023-05-03T13:39:18;21.10;97.00
18173;DHT22;9211;48.818;9.312;2023-05-03T13:41:46;21.10;97.90
18173;DHT22;9211;48.818;9.312;2023-05-03T13:44:13;21.00;97.60
18173;DHT22;9211;48.818;9.312;2023-05-03T13:46:42;21.10;98.00
18173;DHT22;9211;48.818;9.312;2023-05-03T13:49:09;21.30;98.20
18173;DHT22;9211;48.818;9.312;2023-05-03T13:51:36;21.50;97.30
18173;DHT22;9211;48.818;9.312;2023-05-03T13:54:05;21.80;96.40
18173;DHT22;9211;48.818;9.312;2023-05-03T13:56:32;22.10;95.80
18173;DHT22;9211;48.818;9.312;2023-05-03T13:59:01;22.30;94.50
18173;DHT22;9211;48.818;9.312;2023-05-03T14:01:29;22.30;92.70
18173;DHT22;9211;48.818;9.312;2023-05-03T14:03:56;22.30;92.20
18173;DHT22;9211;48.818;9.312;2023-05-03T14:06:23;22.40;91.90
18173;DHT22;9211;48.818;9.312;2023-05-03T14:08:52;22.50;94.80
18173;DHT22;9211;48.818;9.312;2023-05-03T14:11:21;22.70;93.30
18173;DHT22;9211;48.818;9.312;2023-05-03T14:13:49;22.60;92.00
18173;DHT22;9211;48.818;9.312;2023-05-03T14:16:19;22.40;92.20
18173;DHT22;9211;48.818;9.312;2023-05-03T14:18:47;22.20;92.40
18173;DHT22;9211;48.818;9.312;2023-05-03T14:21:15;22.00;92.60
18173;DHT22;9211;48.818;9.312;2023-05-03T14:23:43;21.90;92.40
18173;DHT22;9211;48.818;9.312;2023-05-03T14:26:10;21.90;91.10
18173;DHT22;9211;48.818;9.312;2023-05-03T14:28:38;22.00;90.40
18173;DHT22;9211;48.818;9.312;2023-05-03T14:31:05;22.20;89.70
18173;DHT22;9211;48.818;9.312;2023-05-03T14:33:34;22.30;89.60
18173;DHT22;9211;48.818;9.312;2023-05-03T14:36:01;22.50;90.00
18173;DHT22;9211;48.818;9.312;2023-05-03T14:38:29;22.60;90.00
18173;DHT22;9211;48.818;9.312;2023-05-03T14:40:56;22.90;90.10
18173;DHT22;9211;48.818;9.312;2023-05-03T14:43:22;22.80;89.00
18173;DHT22;9211;48.818;9.312;2023-05-03T14:45:49;22.80;87.10
18173;DHT22;9211;48.818;9.312;2023-05-03T14:48:16;22.80;87.80
18173;DHT22;9211;48.818;9.312;2023-05-03T14:50:48;22.80;87.40
18173;DHT22;9211;48.818;9.312;2023-05-03T14:53:15;22.70;86.70
18173;DHT22;9211;48.818;9.312;2023-05-03T14:55:42;22.80;86.30
18173;DHT22;9211;48.818;9.312;2023-05-03T14:58:09;22.90;86.70
18173;DHT22;9211;48.818;9.312;2023-05-03T15:00:38;23.00;85.70
18173;DHT22;9211;48.818;9.312;2023-05-03T15:03:05;23.10;86.00
18173;DHT22;9211;48.818;9.312;2023-05-03T15:05:41;23.20;85.70
18173;DHT22;9211;48.818;9.312;2023-05-03T15:08:11;23.20;85.00
18173;DHT22;9211;48.818;9.312;2023-05-03T15:10:39;23.30;83.80
18173;DHT22;9211;48.818;9.312;2023-05-03T15:13:06;23.40;82.20
18173;DHT22;9211;48.818;9.312;2023-05-03T15:15:35;23.40;81.70
18173;DHT22;9211;48.818;9.312;2023-05-03T15:18:02;23.50;81.00
18173;DHT22;9211;48.818;9.312;2023-05-03T15:20:30;23.50;79.30
18173;DHT22;9211;48.818;9.312;2023-05-03T15:22:57;23.60;79.00
18173;DHT22;9211;48.818;9.312;2023-05-03T15:25:25;23.70;77.40
18173;DHT22;9211;48.818;9.312;2023-05-03T15:27:52;23.70;76.20
18173;DHT22;9211;48.818;9.312;2023-05-03T15:30:19;23.80;77.10
18173;DHT22;9211;48.818;9.312;2023-05-03T15:32:46;23.80;76.50
18173;DHT22;9211;48.818;9.312;2023-05-03T15:35:13;23.90;78.20
18173;DHT22;9211;48.818;9.312;2023-05-03T15:37:40;24.00;77.80
18173;DHT22;9211;48.818;9.312;2023-05-03T15:40:09;24.10;77.00
18173;DHT22;9211;48.818;9.312;2023-05-03T15:42:37;24.10;76.90
18173;DHT22;9211;48.818;9.312;2023-05-03T15:45:06;24.10;76.60
18173;DHT22;9211;48.818;9.312;2023-05-03T15:47:34;24.00;75.40
18173;DHT22;9211;48.818;9.312;2023-05-03T15:50:01;24.00;76.40
18173;DHT22;9211;48.818;9.312;2023-05-03T15:52:30;24.00;76.00
18173;DHT22;9211;48.818;9.312;2023-05-03T15:54:57;24.20;75.10
18173;DHT22;9211;48.818;9.312;2023-05-03T15:57:24;24.20;74.40
18173;DHT22;9211;48.818;9.312;2023-05-03T15:59:53;24.20;75.10